createdAt,value
2022-09-26T04:08:27.003Z,14.97
2022-09-26T04:11:29.890Z,14.97
2022-09-26T04:14:32.749Z,14.54
2022-09-26T04:17:35.125Z,14.58
2022-09-26T04:20:37.677Z,14.63
2022-09-26T04:23:41.085Z,14.71
2022-09-26T04:26:44.467Z,14.75
2022-09-26T04:29:46.798Z,14.72
2022-09-26T04:32:49.069Z,14.69
2022-09-26T04:35:52.957Z,14.72
2022-09-26T04:38:55.093Z,14.66
2022-09-26T04:41:58.434Z,14.67
2022-09-26T04:45:00.483Z,14.65
2022-09-26T04:48:03.031Z,14.73
2022-09-26T04:51:09.286Z,14.81
2022-09-26T04:54:12.362Z,14.70
2022-09-26T04:57:19.371Z,14.83
2022-09-26T05:00:23.259Z,14.77
2022-09-26T05:03:25.809Z,14.76
2022-09-26T05:06:28.437Z,14.70
2022-09-26T05:09:35.571Z,14.72
2022-09-26T05:12:41.424Z,14.69
2022-09-26T05:15:43.497Z,14.73
2022-09-26T05:18:52.242Z,14.86
2022-09-26T05:21:56.717Z,14.77
2022-09-26T05:25:17.978Z,14.78
2022-09-26T05:28:20.060Z,14.79
2022-09-26T05:31:25.428Z,14.94
2022-09-26T05:34:28.075Z,15.00
2022-09-26T05:37:31.006Z,15.01
2022-09-26T05:40:52.055Z,15.08
2022-09-26T05:43:54.634Z,15.06
2022-09-26T05:46:57.473Z,14.86
2022-09-26T05:50:01.117Z,14.84
2022-09-26T05:53:04.550Z,14.76
2022-09-26T05:56:12.748Z,14.71
2022-09-26T05:59:23.218Z,14.66
2022-09-26T06:02:26.909Z,14.75
2022-09-26T06:05:31.516Z,14.82
2022-09-26T06:08:36.972Z,14.88
2022-09-26T06:11:39.932Z,14.82
2022-09-26T06:14:46.904Z,14.86
2022-09-26T06:17:57.686Z,14.95
2022-09-26T06:21:04.582Z,14.87
2022-09-26T06:24:08.519Z,14.82
2022-09-26T06:27:10.810Z,14.78
2022-09-26T06:30:13.927Z,14.82
2022-09-26T06:33:16.277Z,14.93
2022-09-26T06:36:22.596Z,14.96
2022-09-26T06:39:31.428Z,15.10
2022-09-26T06:42:37.826Z,15.12
2022-09-26T06:45:45.815Z,15.14
2022-09-26T06:48:48.225Z,15.14
2022-09-26T06:51:50.354Z,15.16
2022-09-26T06:54:56.426Z,15.12
2022-09-26T06:57:58.685Z,15.13
2022-09-26T07:01:02.089Z,15.19
2022-09-26T07:04:05.871Z,15.19
2022-09-26T07:07:08.629Z,15.24
2022-09-26T07:10:10.983Z,15.32
2022-09-26T07:13:15.659Z,15.24
2022-09-26T07:16:18.312Z,15.15
2022-09-26T07:19:21.644Z,15.16
2022-09-26T07:22:25.944Z,15.20
2022-09-26T07:25:31.287Z,15.23
2022-09-26T07:28:34.025Z,15.23
2022-09-26T07:31:37.113Z,15.30
2022-09-26T07:34:43.229Z,15.31
2022-09-26T07:37:52.780Z,15.32
2022-09-26T07:40:55.366Z,15.38
2022-09-26T07:47:42.408Z,15.33
2022-09-26T07:50:46.360Z,15.29
2022-09-26T07:53:48.935Z,15.34
2022-09-26T07:56:53.691Z,15.49
2022-09-26T07:59:55.844Z,15.49
2022-09-26T08:03:01.405Z,15.44
2022-09-26T08:06:04.961Z,15.39
2022-09-26T08:09:07.967Z,15.37
2022-09-26T08:12:15.071Z,15.38
2022-09-26T08:15:21.321Z,15.46
2022-09-26T08:18:25.201Z,15.52
2022-09-26T08:21:27.285Z,15.41
2022-09-26T08:24:30.534Z,15.43
2022-09-26T08:27:34.141Z,15.40
2022-09-26T08:30:36.963Z,15.46
2022-09-26T08:33:39.443Z,15.50
2022-09-26T08:36:41.838Z,15.44
2022-09-26T08:39:44.930Z,15.47
2022-09-26T08:43:11.105Z,15.44
2022-09-26T08:46:29.642Z,15.47
2022-09-26T08:49:51.229Z,15.52
2022-09-26T08:53:15.846Z,15.59
2022-09-26T08:56:22.791Z,15.55
2022-09-26T08:59:31.420Z,15.57
2022-09-26T09:03:12.760Z,15.62
2022-09-26T09:06:18.484Z,15.67
2022-09-26T09:09:21.787Z,15.72
2022-09-26T09:12:39.287Z,15.77
2022-09-26T09:16:12.899Z,15.74
2022-09-26T09:19:38.885Z,15.74
2022-09-26T09:23:07.545Z,15.69
2022-09-26T09:30:17.154Z,15.94
2022-09-26T09:33:29.457Z,16.04
2022-09-26T09:36:41.896Z,16.16
2022-09-26T09:39:48.233Z,16.16
2022-09-26T09:43:26.821Z,16.23
2022-09-26T09:46:29.440Z,16.33
2022-09-26T09:49:32.081Z,16.47
2022-09-26T09:53:10.005Z,16.60
2022-09-26T09:56:32.989Z,16.62
2022-09-26T10:00:09.995Z,16.66
2022-09-26T10:03:29.541Z,16.79
2022-09-26T10:06:46.280Z,16.83
2022-09-26T10:09:51.735Z,16.89
2022-09-26T10:13:03.621Z,16.94
2022-09-26T10:16:09.873Z,16.83
2022-09-26T10:19:13.943Z,16.86
2022-09-26T10:22:19.714Z,16.75
2022-09-26T10:25:26.243Z,16.77
2022-09-26T10:28:30.098Z,16.81
2022-09-26T10:31:42.334Z,16.78
2022-09-26T10:35:04.024Z,16.75
2022-09-26T10:38:18.313Z,16.65
2022-09-26T10:41:25.325Z,16.66
2022-09-26T10:44:33.947Z,16.56
2022-09-26T10:47:40.690Z,16.64
2022-09-26T10:50:52.176Z,16.59
2022-09-26T10:54:13.036Z,16.63
2022-09-26T10:57:23.213Z,16.66
2022-09-26T11:00:37.364Z,16.75
2022-09-26T11:03:43.966Z,16.77
2022-09-26T11:06:49.606Z,16.76
2022-09-26T11:09:56.923Z,16.79
2022-09-26T11:13:22.792Z,16.80
2022-09-26T11:16:27.089Z,16.84
2022-09-26T11:19:54.644Z,16.89
2022-09-26T11:23:19.755Z,16.96
2022-09-26T11:26:54.665Z,16.99
2022-09-26T11:30:11.508Z,17.07
2022-09-26T11:33:18.698Z,17.09
2022-09-26T11:37:00.696Z,17.12
2022-09-26T11:40:12.286Z,17.17
2022-09-26T11:43:27.625Z,17.19
2022-09-26T11:46:58.966Z,17.25
2022-09-26T11:50:20.285Z,17.33
2022-09-26T11:53:46.044Z,17.38
2022-09-26T11:57:31.879Z,17.48
2022-09-26T12:00:58.489Z,17.48
2022-09-26T12:04:32.677Z,17.55
2022-09-26T12:07:44.551Z,17.53
2022-09-26T12:11:05.472Z,17.58
2022-09-26T12:14:36.025Z,17.59
2022-09-26T12:18:05.998Z,17.70
2022-09-26T12:21:34.255Z,17.71
2022-09-26T12:24:51.502Z,17.79
2022-09-26T12:28:19.766Z,17.93
2022-09-26T12:31:54.760Z,17.98
2022-09-26T12:35:21.102Z,18.03
2022-09-26T12:38:44.847Z,18.12
2022-09-26T12:42:02.651Z,18.12
2022-09-26T12:45:31.746Z,18.07
2022-09-26T12:49:11.477Z,18.19
2022-09-26T12:52:39.839Z,18.05
2022-09-26T12:55:51.245Z,18.07
2022-09-26T12:59:29.105Z,18.08
2022-09-26T13:02:46.796Z,18.13
2022-09-26T13:06:14.857Z,18.08
2022-09-26T13:09:31.693Z,18.04
2022-09-26T13:12:47.203Z,18.08
2022-09-26T13:16:00.001Z,18.14
2022-09-26T13:19:16.443Z,18.16
2022-09-26T13:22:21.976Z,18.11
2022-09-26T13:25:49.394Z,18.06
2022-09-26T13:29:17.217Z,18.06
2022-09-26T13:32:34.115Z,18.16
2022-09-26T13:35:41.049Z,18.22
2022-09-26T13:39:00.007Z,18.22
2022-09-26T13:42:11.144Z,18.33
2022-09-26T13:45:33.403Z,18.27
2022-09-26T13:48:46.153Z,18.36
2022-09-26T13:52:01.178Z,18.38
2022-09-26T13:55:10.836Z,18.38
2022-09-26T13:58:21.444Z,18.39
2022-09-26T14:01:27.505Z,18.43
2022-09-26T14:04:36.421Z,18.46
2022-09-26T14:07:57.133Z,18.52
2022-09-26T14:11:11.841Z,18.43
2022-09-26T14:14:16.810Z,18.38
2022-09-26T14:17:44.915Z,18.40
2022-09-26T14:20:57.224Z,18.39
2022-09-26T14:24:21.160Z,18.43
2022-09-26T14:27:36.120Z,18.46
2022-09-26T14:30:38.563Z,18.38
2022-09-26T14:33:42.949Z,18.38
2022-09-26T14:36:46.881Z,18.29
2022-09-26T14:40:00.068Z,18.25
2022-09-26T14:43:17.479Z,18.25
2022-09-26T14:46:25.606Z,18.32
2022-09-26T14:49:28.830Z,18.31
2022-09-26T14:52:32.673Z,18.22
2022-09-26T14:55:34.995Z,18.22
2022-09-26T14:58:37.173Z,18.23
2022-09-26T15:01:39.868Z,18.25
2022-09-26T15:04:43.544Z,18.27
2022-09-26T15:07:53.990Z,18.29
2022-09-26T15:10:57.952Z,18.29
2022-09-26T15:14:10.858Z,18.26
2022-09-26T15:17:18.529Z,18.35
2022-09-26T15:20:22.698Z,18.35
2022-09-26T15:23:32.156Z,18.34
2022-09-26T15:26:36.724Z,18.36
2022-09-26T15:29:48.444Z,18.32
2022-09-26T15:32:56.838Z,18.23
2022-09-26T15:36:01.139Z,18.20
2022-09-26T15:39:32.145Z,18.18
2022-09-26T15:42:53.004Z,18.16
2022-09-26T15:45:58.800Z,18.11
2022-09-26T15:49:00.894Z,18.17
2022-09-26T15:52:04.650Z,18.06
2022-09-26T15:55:09.244Z,18.04
